Time;durP1;ratioP1;P1;durP2;ratioP2;P2;SDS_P1;SDS_P2;PMS_P1;PMS_P2;Temp;Humidity;BMP_temperature;BMP_pressure;BME280_temperature;BME280_humidity;BME280_pressure;Samples;Min_cycle;Max_cycle;Signal;HPM_P1;HPM_P2
2022/10/02 00:00:21;;;;;;;;;;;;;;;;;;5091761;27;19934;-78
2022/10/02 00:02:47;;;;;;;;;;;;;;;;;;5091677;28;20428;-77
2022/10/02 00:09:44;;;;;;;;;;;;;;;;;;5091998;27;20402;-77
2022/10/02 00:14:11;;;;;;;;;;;;;;;;;;5092032;27;19917;-78
2022/10/02 00:22:16;;;;;;;;;;;;;;;;;;5111738;27;19916;-77
2022/10/02 00:26:08;;;;;;;;;;;;;;;;;;5092041;28;20384;-78
2022/10/02 00:28:34;;;;;;;;;;;;;;;;;;5089783;28;20007;-77
2022/10/02 00:31:00;;;;;;;;;;;;;;;;;;5090147;28;20415;-78
2022/10/02 00:33:26;;;;;;;;;;;;;;;;;;5091358;28;20370;-78
2022/10/02 00:37:50;;;;;;;;;;;;;;;;;;5091627;27;19916;-78
2022/10/02 00:43:10;;;;;;;;;;;;;;;;;;5131971;27;19922;-77
2022/10/02 00:48:07;;;;;;;;;;;;;;;;;;5112485;27;19918;-77
2022/10/02 00:50:33;;;;;;;;;;;;;;;;;;5111542;28;20007;-78
2022/10/02 00:52:59;;;;;;;;;;;;;;;;;;5111765;28;20080;-78
2022/10/02 00:56:48;;;;;;;;;;;;;;;;;;5091864;27;19926;-77
2022/10/02 00:59:14;;;;;;;;;;;;;;;;;;5091477;28;19916;-78
2022/10/02 01:01:40;;;;;;;;;;;;;;;;;;5091502;28;19954;-77
2022/10/02 01:04:06;;;;;;;;;;;;;;;;;;5091011;28;20384;-78
2022/10/02 01:07:24;;;;;;;;;;;;;;;;;;5091773;27;19922;-78
2022/10/02 01:13:05;;;;;;;;;;;;;;;;;;5091872;27;19923;-78
2022/10/02 01:15:31;;;;;;;;;;;;;;;;;;5090108;28;19995;-77
2022/10/02 01:26:01;;;;;;;;;;;;;;;;;;5091171;27;19939;-78
2022/10/02 01:30:42;;;;;;;;;;;;;;;;;;5092012;27;20298;-77
2022/10/02 01:33:08;;;;;;;;;;;;;;;;;;5091253;28;19935;-78
2022/10/02 01:35:34;;;;;;;;;;;;;;;;;;5091465;28;20364;-78
2022/10/02 01:38:49;;;;;;;;;;;;;;;;;;5054121;27;19935;-77
2022/10/02 01:41:15;;;;;;;;;;;;;;;;;;5047758;28;20003;-77
2022/10/02 01:45:10;;;;;;;;;;;;;;;;;;5092280;28;19923;-77
2022/10/02 01:47:36;;;;;;;;;;;;;;;;;;5091093;28;20439;-77
2022/10/02 01:50:02;;;;;;;;;;;;;;;;;;5091406;28;19908;-77
2022/10/02 01:54:20;;;;;;;;;;;;;;;;;;5091337;27;20380;-77
2022/10/02 01:56:46;;;;;;;;;;;;;;;;;;5091467;28;19918;-77
2022/10/02 01:59:12;;;;;;;;;;;;;;;;;;5091377;28;20319;-77
2022/10/02 02:03:18;;;;;;;;;;;;;;;;;;5091460;27;19923;-77
2022/10/02 02:05:43;;;;;;;;;;;;;;;;;;5091628;28;20321;-77
2022/10/02 02:10:29;;;;;;;;;;;;;;;;;;5112192;27;19922;-77
2022/10/02 02:12:55;;;;;;;;;;;;;;;;;;5110514;28;20002;-77
2022/10/02 02:15:21;;;;;;;;;;;;;;;;;;5111374;28;19908;-77
2022/10/02 02:17:47;;;;;;;;;;;;;;;;;;5112066;28;19914;-76
2022/10/02 02:24:47;;;;;;;;;;;;;;;;;;5091799;27;19917;-77
2022/10/02 02:27:13;;;;;;;;;;;;;;;;;;5091816;28;20011;-77
2022/10/02 02:29:39;;;;;;;;;;;;;;;;;;5091074;28;19909;-77
2022/10/02 02:34:08;;;;;;;;;;;;;;;;;;5112322;27;19916;-77
2022/10/02 02:38:12;;;;;;;;;;;;;;;;;;5091505;27;19912;-77
2022/10/02 02:41:16;;;;;;;233.88;185.02;;;;;;;;;;5131854;27;20349;-77
2022/10/02 02:43:54;;;;;;;648.38;283.17;;;;;;;;;;5131566;28;20031;-77
2022/10/02 02:46:20;;;;;;;;;;;;;;;;;;5132473;28;20031;-77
2022/10/02 02:48:46;;;;;;;;;;;;;;;;;;5132258;28;20351;-77
2022/10/02 02:51:12;;;;;;;;;;;;;;;;;;5113471;28;20363;-77
2022/10/02 02:53:38;;;;;;;;;;;;;;;;;;5132158;28;19911;-77
2022/10/02 02:57:24;;;;;;;;;;;;;;;;;;5111836;27;19922;-77
2022/10/02 02:59:50;;;;;;;;;;;;;;;;;;5111876;28;20010;-77
2022/10/02 03:02:42;;;;;;;;;;;;;;;;;;5092257;27;20288;-77
2022/10/02 03:07:41;;;;;;;;;;;;;;;;;;5091827;27;19923;-77
2022/10/02 03:11:45;;;;;;;;;;;;;;;;;;5132114;27;20353;-77
2022/10/02 03:14:11;;;;;;;;;;;;;;;;;;5132306;28;20378;-77
2022/10/02 03:17:12;;;;;;;;;;;;;;;;;;5091451;27;19922;-77
2022/10/02 03:19:38;;;;;;;;;;;;;;;;;;5091625;28;20003;-77
2022/10/02 03:22:04;;;;;;;;;;;;;;;;;;5091630;28;19908;-77
2022/10/02 03:24:30;;;;;;;;;;;;;;;;;;5090965;28;19908;-77
2022/10/02 03:26:56;;;;;;;;;;;;;;;;;;5091283;28;20414;-77
2022/10/02 03:31:25;;;;;;;;;;;;;;;;;;5111948;27;19918;-77
2022/10/02 03:35:12;;;;;;;;;;;;;;;;;;5091693;27;19923;-78
2022/10/02 03:37:38;;;;;;;;;;;;;;;;;;5091484;28;19999;-78
2022/10/02 03:40:04;;;;;;;;;;;;;;;;;;5091136;28;20364;-78
2022/10/02 03:42:30;;;;;;;;;;;;;;;;;;5091406;28;19909;-78
2022/10/02 03:44:56;;;;;;;;;;;;;;;;;;5091419;28;19908;-78
2022/10/02 03:47:22;;;;;;;;;;;;;;;;;;5090832;28;19912;-78
2022/10/02 03:49:48;;;;;;;;;;;;;;;;;;5091371;28;19908;-78
2022/10/02 03:52:15;;;;;;;;;;;;;;;;;;5089759;28;19913;-78
2022/10/02 03:57:01;;;;;;;;;;;;;;;;;;5072042;28;20549;-78
2022/10/02 03:59:27;;;;;;;;;;;;;;;;;;5070952;28;19913;-78
2022/10/02 04:01:53;;;;;;;;;;;;;;;;;;5071269;28;19911;-78
2022/10/02 04:04:19;;;;;;;;;;;;;;;;;;5071239;28;19904;-78
2022/10/02 04:10:59;;;;;;;605.90;247.18;;;;;;;;;;5111498;27;20389;-78
2022/10/02 04:13:25;;;;;;;;;;;;;;;;;;5111616;28;20391;-78
2022/10/02 04:17:42;;;;;;;;;;;;;;;;;;5111900;27;19922;-78
2022/10/02 04:20:08;;;;;;;;;;;;;;;;;;5111939;28;20287;-78
2022/10/02 04:25:05;;;;;;;;;;;;;;;;;;5092050;28;20304;-78
2022/10/02 04:27:31;;;;;;;;;;;;;;;;;;5091566;28;19999;-78
2022/10/02 04:29:57;;;;;;;;;;;;;;;;;;5091487;28;20326;-78
2022/10/02 04:32:23;;;;;;;;;;;;;;;;;;5090124;28;19916;-78
2022/10/02 04:34:48;;;;;;;;;;;;;;;;;;5090935;28;19909;-78
2022/10/02 04:37:14;;;;;;;;;;;;;;;;;;5091645;28;19920;-78
2022/10/02 04:39:41;;;;;;;;;;;;;;;;;;5090035;28;19908;-78
2022/10/02 04:42:07;;;;;;;;;;;;;;;;;;5090747;28;19908;-78
2022/10/02 04:44:58;;;;;;;;;;;;;;;;;;5092414;27;19916;-78
2022/10/02 04:49:41;;;;;;;;;;;;;;;;;;5091402;27;20389;-79
2022/10/02 04:54:02;;;;;;;;;;;;;;;;;;5091813;27;19917;-78
2022/10/02 04:56:28;;;;;;;;;;;;;;;;;;5091105;28;20347;-78
2022/10/02 04:58:54;;;;;;;;;;;;;;;;;;5091567;28;19909;-78
2022/10/02 05:01:20;;;;;;;;;;;;;;;;;;5091423;28;19923;-78
2022/10/02 05:03:46;;;;;;;;;;;;;;;;;;5090893;28;19912;-78
2022/10/02 05:06:12;;;;;;;;;;;;;;;;;;5091937;28;20347;-78
2022/10/02 05:08:38;;;;;;;;;;;;;;;;;;5091239;28;20379;-77
2022/10/02 05:11:04;;;;;;;;;;;;;;;;;;5090820;28;20280;-78
2022/10/02 05:16:46;;;;;;;;;;;;;;;;;;5111759;27;20385;-77
2022/10/02 05:19:12;;;;;;;;;;;;;;;;;;5111810;28;20279;-77
2022/10/02 05:21:38;;;;;;;;;;;;;;;;;;5112053;28;19915;-76
2022/10/02 05:24:04;;;;;;;;;;;;;;;;;;5110034;28;19908;-77
2022/10/02 05:28:12;;;;;;;;;;;;;;;;;;5092219;28;19916;-77
2022/10/02 05:30:38;;;;;;;;;;;;;;;;;;5090294;28;20007;-78
2022/10/02 05:33:04;;;;;;;;;;;;;;;;;;5089741;28;19915;-79
2022/10/02 05:35:30;;;;;;;;;;;;;;;;;;5091449;28;19948;-78
2022/10/02 05:37:56;;;;;;;;;;;;;;;;;;5090992;28;19938;-77
2022/10/02 05:40:23;;;;;;;;;;;;;;;;;;5091519;28;19916;-77
2022/10/02 05:42:49;;;;;;;;;;;;;;;;;;5091270;28;20360;-79
2022/10/02 05:45:15;;;;;;;;;;;;;;;;;;5091263;28;19975;-77
2022/10/02 05:47:43;;;;;;;;;;;;;;;;;;5090995;28;20015;-78
2022/10/02 05:50:09;;;;;;;;;;;;;;;;;;5091181;28;19914;-77
2022/10/02 05:54:09;;;;;;;;;;;;;;;;;;5091632;27;20258;-77
2022/10/02 05:56:35;;;;;;;;;;;;;;;;;;5091519;28;19919;-76
2022/10/02 05:59:01;;;;;;;;;;;;;;;;;;5092007;28;19908;-77
2022/10/02 06:01:27;;;;;;;;;;;;;;;;;;5091345;28;19909;-77
2022/10/02 06:03:54;;;;;;;;;;;;;;;;;;5091308;28;19942;-77
2022/10/02 06:13:16;;;;;;;;;;;;;;;;;;5050995;28;19923;-77
2022/10/02 06:15:43;;;;;;;;;;;;;;;;;;5050086;28;19999;-78
2022/10/02 06:18:08;;;;;;;;;;;;;;;;;;5051265;28;20004;-77
2022/10/02 06:22:01;;;;;;;;;;;;;;;;;;5091336;28;19917;-78
2022/10/02 06:26:34;;;;;;;;;;;;;;;;;;5091556;27;19923;-77
2022/10/02 06:33:58;;;;;;;;;;;;;;;;;;5091960;27;20384;-78
2022/10/02 06:36:52;;;;;;;;;;;;;;;;;;5092444;27;19916;-78
2022/10/02 06:39:18;;;;;;;;;;;;;;;;;;5091394;28;20007;-77
2022/10/02 06:41:46;;;;;;;;;;;;;;;;;;5090911;28;20011;-78
2022/10/02 06:44:29;;;;;;;;;;;;;;;;;;5091849;27;19923;-78
2022/10/02 06:46:55;;;;;;;;;;;;;;;;;;5091705;28;19994;-78
2022/10/02 06:49:21;;;;;;;;;;;;;;;;;;5091128;28;19915;-78
2022/10/02 06:53:12;;;;;;;;;;;;;;;;;;5071707;28;19923;-78
2022/10/02 06:55:39;;;;;;;;;;;;;;;;;;5070835;28;20003;-77
2022/10/02 06:58:05;;;;;;;;;;;;;;;;;;5071447;28;20416;-78
2022/10/02 07:00:31;;;;;;;;;;;;;;;;;;5071523;28;19947;-79
2022/10/02 07:02:58;;;;;;;;;;;;;;;;;;5070746;28;19909;-78
2022/10/02 07:05:25;;;;;;;;;;;;;;;;;;5071120;28;19909;-78
2022/10/02 07:10:42;;;;;;;;;;;;;;;;;;5091449;27;20299;-76
2022/10/02 07:13:59;;;;;;;;;;;;;;;;;;5153283;27;20006;-77
2022/10/02 07:18:57;;;;;;;;;;;;;;;;;;5112350;27;19919;-77
2022/10/02 07:21:23;;;;;;;;;;;;;;;;;;5111720;28;20011;-77
2022/10/02 07:23:49;;;;;;;;;;;;;;;;;;5111300;28;20016;-77
2022/10/02 07:28:05;;;;;;;;;;;;;;;;;;5092118;27;19916;-78
2022/10/02 07:33:12;;;;;;;;;;;;;;;;;;5132262;27;20287;-78
2022/10/02 07:35:38;;;;;;;;;;;;;;;;;;5132509;28;19911;-79
2022/10/02 07:38:04;;;;;;;;;;;;;;;;;;5131898;28;20041;-77
2022/10/02 07:40:30;;;;;;;;;;;;;;;;;;5132688;28;19959;-78
2022/10/02 07:42:56;;;;;;;;;;;;;;;;;;5132790;28;19914;-77
2022/10/02 07:45:22;;;;;;;;;;;;;;;;;;5130344;28;19954;-78
2022/10/02 07:47:48;;;;;;;;;;;;;;;;;;5131958;28;19908;-79
2022/10/02 07:50:14;;;;;;;;;;;;;;;;;;5131827;28;19953;-80
2022/10/02 07:52:56;;;;;;;;;;;;;;;;;;5091216;27;19916;-78
2022/10/02 07:56:04;;;;;;;;;;;;;;;;;;5091621;28;20384;-80
2022/10/02 07:58:31;;;;;;;;;;;;;;;;;;5091301;28;20007;-83
2022/10/02 08:02:36;;;;;;;;;;;;;;;;;;5091747;28;20414;-81
2022/10/02 08:05:02;;;;;;;;;;;;;;;;;;5091681;28;20007;-79
2022/10/02 08:09:54;;;;;;;;;;;;;;;;;;5092533;27;19916;-82
2022/10/02 08:12:21;;;;;;;;;;;;;;;;;;5091622;28;20008;-79
2022/10/02 08:14:47;;;;;;;;;;;;;;;;;;5091127;28;20360;-79
2022/10/02 08:17:13;;;;;;;;;;;;;;;;;;5091483;28;19915;-79
2022/10/02 08:20:05;;;;;;;;;;;;;;;;;;5091777;27;19916;-80
2022/10/02 08:22:30;;;;;;;;;;;;;;;;;;5091472;28;19999;-79
2022/10/02 08:24:56;;;;;;;;;;;;;;;;;;5091933;28;20000;-79
2022/10/02 08:27:22;;;;;;;;;;;;;;;;;;5090922;28;20357;-80
2022/10/02 08:29:48;;;;;;;;;;;;;;;;;;5091287;28;20326;-80
2022/10/02 08:32:14;;;;;;;;;;;;;;;;;;5091187;28;20336;-80
2022/10/02 08:34:40;;;;;;;;;;;;;;;;;;5090770;28;19908;-80
2022/10/02 08:37:06;;;;;;;;;;;;;;;;;;5091198;28;20296;-80
2022/10/02 08:39:32;;;;;;;;;;;;;;;;;;5090978;28;19916;-79
2022/10/02 08:41:58;;;;;;;;;;;;;;;;;;5090873;28;20043;-79
2022/10/02 08:44:24;;;;;;;;;;;;;;;;;;5091070;28;19912;-77
2022/10/02 08:46:57;;;;;;;343.45;228.40;;;;;;;;;;5089724;28;20878;-78
2022/10/02 08:49:23;;;;;;;502.90;279.48;;;;;;;;;;5090181;28;20108;-80
2022/10/02 08:51:55;;;;;;;341.17;199.60;;;;;;;;;;5090982;28;20495;-77
2022/10/02 08:54:21;;;;;;;;;;;;;;;;;;5090827;28;20020;-79
2022/10/02 08:56:47;;;;;;;481.25;242.30;;;;;;;;;;5089196;28;20374;-78
2022/10/02 08:59:16;;;;;;;;;;;;;;;;;;5090654;28;20124;-79
2022/10/02 09:01:42;;;;;;;;;;;;;;;;;;5090514;28;19909;-78
2022/10/02 09:04:39;;;;;;;282.17;204.63;;;;;;;;;;5090128;28;20758;-78
2022/10/02 09:07:05;;;;;;;;;;;;;;;;;;5082985;28;20502;-79
2022/10/02 09:09:31;;;;;;;;;;;;;;;;;;5090127;28;19987;-79
2022/10/02 09:11:59;;;;;;;;;;;;;;;;;;5089194;28;19951;-78
2022/10/02 09:14:25;;;;;;;;;;;;;;;;;;5090465;28;19954;-78
2022/10/02 09:16:51;;;;;;;;;;;;;;;;;;5090043;28;20318;-78
2022/10/02 09:19:18;;;;;;;;;;;;;;;;;;5104211;28;20268;-78
2022/10/02 09:22:35;;;;;;;;;;;;;;;;;;5112374;27;20904;-78
2022/10/02 09:25:01;;;;;;;;;;;;;;;;;;5111350;28;19908;-78
2022/10/02 09:27:27;;;;;;;;;;;;;;;;;;5111755;28;20282;-78
2022/10/02 09:29:53;;;;;;;;;;;;;;;;;;5111652;28;20284;-78
2022/10/02 09:32:20;;;;;;;;;;;;;;;;;;5111253;28;19910;-78
2022/10/02 09:34:46;;;;;;;;;;;;;;;;;;5111788;28;19911;-78
2022/10/02 09:37:14;;;;;;;;;;;;;;;;;;5111746;28;19911;-78
2022/10/02 09:39:40;;;;;;;;;;;;;;;;;;5111435;28;19947;-77
2022/10/02 09:42:07;;;;;;;;;;;;;;;;;;5111411;28;19958;-77
2022/10/02 09:44:33;;;;;;;;;;;;;;;;;;5110956;28;19904;-78
2022/10/02 09:46:59;;;;;;;;;;;;;;;;;;5111334;28;19911;-77
2022/10/02 09:49:25;;;;;;;;;;;;;;;;;;5111514;28;19991;-78
2022/10/02 09:51:51;;;;;;;;;;;;;;;;;;5109589;28;19904;-77
2022/10/02 09:54:20;;;;;;;;;;;;;;;;;;5111345;28;20473;-78
2022/10/02 09:56:46;;;;;;;;;;;;;;;;;;5111199;28;20400;-78
2022/10/02 09:59:12;;;;;;;;;;;;;;;;;;5110681;28;20368;-78
2022/10/02 10:01:38;;;;;;;;;;;;;;;;;;5111021;28;19958;-77
2022/10/02 10:04:07;;;;;;;;;;;;;;;;;;5111012;28;19904;-80
2022/10/02 10:07:00;;;;;;;385.17;230.30;;;;;;;;;;5111123;27;20139;-78
2022/10/02 10:10:59;;;;;;;;;;;;;;;;;;5092095;27;19916;-77
2022/10/02 10:13:25;;;;;;;;;;;;;;;;;;5091156;28;19912;-78
2022/10/02 10:15:51;;;;;;;;;;;;;;;;;;5091373;28;20354;-77
2022/10/02 10:18:17;;;;;;;;;;;;;;;;;;5091375;28;19915;-78
2022/10/02 10:20:43;;;;;;;;;;;;;;;;;;5091005;28;19944;-78
2022/10/02 10:23:09;;;;;;;;;;;;;;;;;;5091269;28;19912;-78
2022/10/02 10:25:35;;;;;;;;;;;;;;;;;;5091757;28;20364;-78
2022/10/02 10:28:01;;;;;;;;;;;;;;;;;;5090940;28;19916;-77
2022/10/02 10:30:27;;;;;;;;;;;;;;;;;;5091052;28;20280;-77
2022/10/02 10:32:53;;;;;;;;;;;;;;;;;;5091073;28;19916;-78
2022/10/02 10:35:19;;;;;;;;;;;;;;;;;;5090540;28;19912;-78
2022/10/02 10:40:34;;;;;;;;;;;;;;;;;;5090685;28;19919;-79
2022/10/02 10:43:01;;;;;;;;;;;;;;;;;;5090920;28;19991;-78
2022/10/02 10:45:27;;;;;;;;;;;;;;;;;;5089584;28;20279;-78
2022/10/02 10:47:53;;;;;;;;;;;;;;;;;;5090503;28;19909;-77
2022/10/02 10:50:19;;;;;;;;;;;;;;;;;;5091130;28;19922;-78
2022/10/02 10:52:45;;;;;;;;;;;;;;;;;;5090747;28;20368;-78
2022/10/02 10:57:25;;;;;;;620.08;283.45;;;;;;;;;;5111551;27;20405;-77
2022/10/02 10:59:51;;;;;;;;;;;;;;;;;;5110465;28;20498;-77
2022/10/02 11:02:20;;;;;;;323.77;246.87;;;;;;;;;;5110158;28;20391;-77
2022/10/02 11:04:51;;;;;;;270.83;213.93;;;;;;;;;;5111608;28;20253;-77
2022/10/02 11:07:49;;;;;;;307.65;236.85;;;;;;;;;;5111508;28;20365;-77
2022/10/02 11:10:15;;;;;;;;;;;;;;;;;;5111282;28;20026;-78
2022/10/02 11:12:41;;;;;;;;;;;;;;;;;;5110393;28;19986;-77
2022/10/02 11:15:06;;;;;;;;;;;;;;;;;;5111382;28;19911;-77
2022/10/02 11:17:33;;;;;;;;;;;;;;;;;;5111117;28;19956;-78
2022/10/02 11:19:59;;;;;;;;;;;;;;;;;;5111591;28;19951;-77
2022/10/02 11:22:25;;;;;;;;;;;;;;;;;;5111412;28;20296;-78
2022/10/02 11:24:52;;;;;;;;;;;;;;;;;;5111075;28;19903;-78
2022/10/02 11:27:18;;;;;;;;;;;;;;;;;;5112157;28;20257;-77
2022/10/02 11:29:44;;;;;;;;;;;;;;;;;;5111063;28;19925;-78
2022/10/02 11:32:13;;;;;;;;;;;;;;;;;;5111188;28;19914;-80
2022/10/02 11:34:41;;;;;;;;;;;;;;;;;;5111178;28;19911;-79
2022/10/02 11:37:08;;;;;;;;;;;;;;;;;;5110655;28;20330;-79
2022/10/02 11:39:34;;;;;;;;;;;;;;;;;;5111127;28;20287;-78
2022/10/02 11:42:04;;;;;;;;;;;;;;;;;;5111008;28;20401;-78
2022/10/02 11:44:30;;;;;;;;;;;;;;;;;;5110637;28;19951;-79
2022/10/02 11:46:56;;;;;;;;;;;;;;;;;;5110986;28;19911;-78
2022/10/02 11:49:25;;;;;;;;;;;;;;;;;;5110942;28;20342;-79
2022/10/02 11:51:51;;;;;;;;;;;;;;;;;;5110442;28;19904;-77
2022/10/02 11:54:17;;;;;;;;;;;;;;;;;;5110692;28;19957;-78
2022/10/02 11:56:43;;;;;;;214.10;193.23;;;;;;;;;;5109475;28;20421;-78
2022/10/02 11:59:09;;;;;;;;;;;;;;;;;;5110208;28;20047;-78
2022/10/02 12:01:34;;;;;;;;;;;;;;;;;;5110648;28;20312;-78
2022/10/02 12:04:02;;;;;;;;;;;;;;;;;;5110575;28;19904;-78
2022/10/02 12:06:39;;;;;;;536.60;314.40;;;;;;;;;;5107773;28;20385;-78
2022/10/02 12:09:13;;;;;;;455.83;285.13;;;;;;;;;;5094997;28;20041;-78
2022/10/02 12:11:55;;;;;;;419.50;279.15;;;;;;;;;;5096405;28;20024;-78
2022/10/02 12:14:41;;;;;;;443.45;284.83;;;;;;;;;;5095139;28;20035;-78
2022/10/02 12:17:10;;;;;;;442.83;279.27;;;;;;;;;;5096350;28;20028;-78
2022/10/02 12:28:54;;;;;;;479.05;307.17;;;;;;;;;;5053677;28;20026;-78
2022/10/02 12:31:33;;;;;;;565.38;325.73;;;;;;;;;;5091228;28;20119;-78
2022/10/02 12:34:08;;;;;;;603.03;330.98;;;;;;;;;;5095647;28;20414;-79
2022/10/02 12:36:34;;;;;;;502.05;309.77;;;;;;;;;;5095843;28;20032;-78
2022/10/02 12:39:00;;;;;;;504.95;311.65;;;;;;;;;;5095828;28;20089;-78
2022/10/02 12:41:35;;;;;;;495.52;302.58;;;;;;;;;;5095454;28;20094;-78
2022/10/02 12:44:04;;;;;;;465.70;293.92;;;;;;;;;;5095817;28;20027;-77
2022/10/02 12:46:49;;;;;;;451.83;294.10;;;;;;;;;;5095811;28;20025;-77
2022/10/02 12:49:15;;;;;;;453.98;294.33;;;;;;;;;;5094010;28;20056;-77
2022/10/02 12:51:53;;;;;;;441.40;291.33;;;;;;;;;;5095757;28;20024;-77
2022/10/02 12:54:33;;;;;;;431.23;289.80;;;;;;;;;;5095285;28;20164;-77
2022/10/02 12:56:59;;;;;;;470.30;302.25;;;;;;;;;;5095458;28;20135;-77
2022/10/02 12:59:34;;;;;;;476.30;304.23;;;;;;;;;;5095601;28;20488;-77
2022/10/02 13:02:19;;;;;;;484.20;302.85;;;;;;;;;;5094994;28;20028;-77
2022/10/02 13:04:57;;;;;;;494.75;309.52;;;;;;;;;;5095319;28;20411;-77
2022/10/02 13:07:43;;;;;;;495.45;309.40;;;;;;;;;;5095328;28;20430;-77
2022/10/02 13:10:15;;;;;;;495.77;308.88;;;;;;;;;;5094907;28;20031;-77
2022/10/02 13:12:41;;;;;;;;;;;;;;;;;;5095575;28;20048;-77
2022/10/02 13:15:25;;;;;;;499.02;307.55;;;;;;;;;;5094689;28;19904;-77
2022/10/02 13:17:52;;;;;;;499.92;311.98;;;;;;;;;;5095177;28;20028;-77
2022/10/02 13:20:30;;;;;;;501.23;309.90;;;;;;;;;;5094135;28;20076;-77
2022/10/02 13:22:57;;;;;;;489.25;306.38;;;;;;;;;;5095033;28;20487;-76
2022/10/02 13:25:43;;;;;;;484.73;303.13;;;;;;;;;;5093717;28;20369;-78
2022/10/02 13:28:38;;;;;;;485.92;303.48;;;;;;;;;;5095004;28;20020;-77
2022/10/02 13:31:14;;;;;;;487.88;304.42;;;;;;;;;;5081202;28;20523;-77
2022/10/02 13:34:00;;;;;;;484.45;305.95;;;;;;;;;;5094855;28;20031;-78
2022/10/02 13:36:34;;;;;;;484.08;304.35;;;;;;;;;;5094149;28;20039;-78
2022/10/02 13:39:12;;;;;;;416.15;283.42;;;;;;;;;;5094965;28;20046;-77
2022/10/02 13:41:45;;;;;;;377.20;270.95;;;;;;;;;;5095032;28;20031;-77
2022/10/02 13:44:22;;;;;;;316.65;249.88;;;;;;;;;;5094364;28;20091;-78
2022/10/02 13:46:58;;;;;;;348.00;257.40;;;;;;;;;;5094928;28;20035;-77
2022/10/02 13:49:39;;;;;;;322.05;244.57;;;;;;;;;;5094494;28;20077;-77
2022/10/02 13:52:24;;;;;;;360.67;259.13;;;;;;;;;;5092714;28;20108;-77
2022/10/02 13:55:01;;;;;;;364.52;259.25;;;;;;;;;;5094426;28;20028;-77
2022/10/02 13:57:36;;;;;;;378.08;268.83;;;;;;;;;;5094149;28;20102;-78
2022/10/02 14:00:21;;;;;;;391.73;270.77;;;;;;;;;;5094544;28;20028;-78
2022/10/02 14:02:50;;;;;;;422.55;279.90;;;;;;;;;;5094719;28;20028;-78
2022/10/02 14:05:34;;;;;;;434.42;287.23;;;;;;;;;;5093911;28;20016;-78
2022/10/02 14:08:19;;;;;;;420.40;283.65;;;;;;;;;;5094517;28;20023;-78
2022/10/02 14:10:58;;;;;;;402.38;275.60;;;;;;;;;;5094191;28;20024;-78
2022/10/02 14:13:41;;;;;;;449.98;294.33;;;;;;;;;;5093699;28;20027;-78
2022/10/02 14:16:19;;;;;;;445.92;290.38;;;;;;;;;;5092745;28;20025;-78
2022/10/02 14:18:48;;;;;;;420.80;280.52;;;;;;;;;;5093753;28;20059;-78
2022/10/02 14:21:33;;;;;;;480.35;305.17;;;;;;;;;;5094144;28;20020;-78
2022/10/02 14:24:06;;;;;;;481.42;304.38;;;;;;;;;;5094456;28;20024;-78
2022/10/02 14:26:48;;;;;;;490.15;305.08;;;;;;;;;;5093681;28;20032;-78
2022/10/02 14:29:16;;;;;;;;;;;;;;;;;;5094582;28;20035;-78
2022/10/02 14:31:55;;;;;;;493.48;303.42;;;;;;;;;;5093695;28;20415;-78
2022/10/02 14:34:21;;;;;;;506.10;309.58;;;;;;;;;;5093435;28;20035;-79
2022/10/02 14:36:51;;;;;;;493.63;307.30;;;;;;;;;;5093756;28;20032;-79
2022/10/02 14:39:37;;;;;;;488.70;302.52;;;;;;;;;;5092365;28;20024;-79
2022/10/02 14:42:29;;;;;;;473.23;289.00;;;;;;;;;;5092404;28;20482;-78
2022/10/02 14:44:55;;;;;;;;;;;;;;;;;;5091302;28;20036;-79
2022/10/02 14:47:25;;;;;;;477.13;295.45;;;;;;;;;;5093767;28;20368;-77
2022/10/02 14:50:10;;;;;;;470.70;293.60;;;;;;;;;;5093893;28;20141;-77
2022/10/02 14:53:12;;;;;;;467.25;299.92;;;;;;;;;;5093552;28;20476;-80
2022/10/02 14:55:38;;;;;;;460.23;288.33;;;;;;;;;;5030615;28;20195;-77
2022/10/02 14:58:27;;;;;;;423.88;275.10;;;;;;;;;;5081041;28;20050;-79
2022/10/02 15:00:56;;;;;;;475.73;296.73;;;;;;;;;;5093216;28;20046;-78
2022/10/02 15:03:38;;;;;;;493.55;305.60;;;;;;;;;;5093598;28;20081;-77
2022/10/02 15:06:10;;;;;;;478.83;290.90;;;;;;;;;;5093752;28;20055;-77
2022/10/02 15:08:47;;;;;;;488.35;308.35;;;;;;;;;;5093244;28;20016;-77
2022/10/02 15:11:40;;;;;;;466.98;298.92;;;;;;;;;;5093669;28;20415;-78
2022/10/02 15:14:10;;;;;;;494.65;311.80;;;;;;;;;;5090547;28;20107;-78
2022/10/02 15:19:35;;;;;;;475.67;301.45;;;;;;;;;;5093336;28;20023;-78
2022/10/02 15:22:20;;;;;;;511.00;305.67;;;;;;;;;;5093023;28;20375;-78
2022/10/02 15:24:56;;;;;;;485.05;309.73;;;;;;;;;;5093274;28;20101;-77
2022/10/02 15:27:23;;;;;;;480.08;306.30;;;;;;;;;;5092137;28;20498;-78
2022/10/02 15:29:49;;;;;;;470.20;299.38;;;;;;;;;;5092903;28;20024;-78
2022/10/02 15:32:33;;;;;;;450.27;295.92;;;;;;;;;;5093208;28;20099;-79
2022/10/02 15:35:18;;;;;;;444.38;293.25;;;;;;;;;;5093197;28;20162;-78
2022/10/02 15:37:47;;;;;;;426.98;283.73;;;;;;;;;;5092671;28;20146;-78
2022/10/02 15:40:19;;;;;;;410.08;281.30;;;;;;;;;;5093157;28;20024;-79
2022/10/02 15:42:46;;;;;;;;;;;;;;;;;;5094556;28;20016;-79
2022/10/02 15:45:32;;;;;;;357.15;265.63;;;;;;;;;;5096928;28;20326;-79
2022/10/02 15:48:18;;;;;;;379.42;270.65;;;;;;;;;;5095608;28;20028;-79
2022/10/02 15:50:45;;;;;;;;;;;;;;;;;;5097020;28;20016;-79
2022/10/02 15:53:23;;;;;;;372.42;269.60;;;;;;;;;;5096582;28;20382;-81
2022/10/02 15:56:02;;;;;;;385.90;268.75;;;;;;;;;;5096678;28;20044;-80
2022/10/02 15:58:28;;;;;;;;;;;;;;;;;;5096744;28;20081;-80
2022/10/02 16:01:00;;;;;;;296.07;242.80;;;;;;;;;;5096112;28;20460;-80
2022/10/02 16:03:42;;;;;;;387.50;261.38;;;;;;;;;;5096757;28;20036;-80
2022/10/02 16:06:12;;;;;;;513.15;288.40;;;;;;;;;;5096263;28;20013;-80
2022/10/02 16:08:38;;;;;;;;;;;;;;;;;;5097043;28;20150;-80
2022/10/02 16:11:04;;;;;;;;;;;;;;;;;;5098005;28;20348;-80
2022/10/02 16:13:30;;;;;;;;;;;;;;;;;;5109163;28;20307;-79
2022/10/02 16:15:56;;;;;;;;;;;;;;;;;;5106945;28;20003;-81
2022/10/02 16:18:22;;;;;;;;;;;;;;;;;;5096415;28;19915;-80
2022/10/02 16:20:48;;;;;;;;;;;;;;;;;;5096663;28;19908;-79
2022/10/02 16:23:14;;;;;;;;;;;;;;;;;;5098329;28;20003;-80
2022/10/02 16:25:40;;;;;;;;;;;;;;;;;;5096327;28;19957;-80
2022/10/02 16:28:07;;;;;;;;;;;;;;;;;;5096639;28;19904;-80
2022/10/02 16:30:33;;;;;;;;;;;;;;;;;;5096728;28;19904;-78
2022/10/02 16:34:40;;;;;;;362.75;226.95;;;;;;;;;;5111372;27;20442;-78
2022/10/02 16:37:22;;;;;;;344.83;227.50;;;;;;;;;;5111657;28;20110;-79
2022/10/02 16:41:33;;;;;;;505.17;284.45;;;;;;;;;;5111044;27;20113;-79
2022/10/02 16:43:59;;;;;;;;;;;;;;;;;;5091484;28;20480;-80
2022/10/02 16:48:05;;;;;;;;;;;;;;;;;;5173463;27;20121;-79
2022/10/02 16:50:49;;;;;;;570.80;303.33;;;;;;;;;;5173378;27;20287;-80
2022/10/02 16:56:44;;;;;;;;;;;;;;;;;;5092079;27;20386;-80
2022/10/02 16:59:10;;;;;;;;;;;;;;;;;;5091349;28;19970;-78
2022/10/02 17:01:55;;;;;;;;;;;;;;;;;;5106222;27;1411434;-78
2022/10/02 17:04:21;;;;;;;;;;;;;;;;;;5152920;27;19948;-78
2022/10/02 17:07:21;;;;;;;;;;;;;;;;;;5091265;28;19912;-79
2022/10/02 17:09:47;;;;;;;;;;;;;;;;;;5091330;28;19920;-77
2022/10/02 17:12:13;;;;;;;;;;;;;;;;;;5091331;28;20280;-79
2022/10/02 17:14:39;;;;;;;;;;;;;;;;;;5090925;28;20316;-79
2022/10/02 17:17:05;;;;;;;;;;;;;;;;;;5091267;28;19908;-78
2022/10/02 17:19:31;;;;;;;;;;;;;;;;;;5091221;28;20003;-78
2022/10/02 17:21:57;;;;;;;;;;;;;;;;;;5090672;28;19908;-78
2022/10/02 17:28:25;;;;;;;;;;;;;;;;;;5091315;27;19971;-78
2022/10/02 17:30:51;;;;;;;;;;;;;;;;;;5091419;28;19912;-78
2022/10/02 17:33:21;;;;;;;;;;;;;;;;;;5091388;28;19908;-79
2022/10/02 17:37:27;;;;;;;;;;;;;;;;;;5152628;27;20278;-78
2022/10/02 17:39:53;;;;;;;;;;;;;;;;;;5152931;27;19912;-78
2022/10/02 17:42:19;;;;;;;;;;;;;;;;;;5133951;27;20377;-78
2022/10/02 17:44:45;;;;;;;;;;;;;;;;;;5153053;27;20367;-78
2022/10/02 17:47:11;;;;;;;;;;;;;;;;;;5152841;27;19908;-78
2022/10/02 17:50:20;;;;;;;;;;;;;;;;;;5091689;28;19923;-78
2022/10/02 17:56:33;;;;;;;;;;;;;;;;;;5091032;28;19919;-78
2022/10/02 18:01:29;;;;;;;;;;;;;;;;;;5091576;27;19916;-77
2022/10/02 18:03:54;;;;;;;;;;;;;;;;;;5091233;28;20328;-78
2022/10/02 18:06:21;;;;;;;;;;;;;;;;;;5091377;28;19962;-78
2022/10/02 18:10:38;;;;;;;;;;;;;;;;;;5111627;27;19916;-78
2022/10/02 18:13:04;;;;;;;;;;;;;;;;;;5111748;28;19918;-77
2022/10/02 18:15:30;;;;;;;;;;;;;;;;;;5111692;28;20368;-77
2022/10/02 18:18:15;;;;;;;;;;;;;;;;;;5111688;27;20590;-77
2022/10/02 18:20:41;;;;;;;;;;;;;;;;;;5111777;28;19908;-77
2022/10/02 18:23:19;;;;;;;;;;;;;;;;;;5091678;27;19922;-76
2022/10/02 18:25:48;;;;;;;;;;;;;;;;;;5091000;28;19913;-77
2022/10/02 18:28:14;;;;;;;;;;;;;;;;;;5091235;28;20265;-78
2022/10/02 18:33:27;;;;;;;513.78;263.08;;;;;;;;;;5111133;27;20873;-80
2022/10/02 18:35:53;;;;;;;;;;;;;;;;;;5110426;28;20063;-80
2022/10/02 18:38:19;;;;;;;;;;;;;;;;;;5110500;28;19993;-79
2022/10/02 18:43:49;;;;;;;;;;;;;;;;;;5091436;28;20300;-77
2022/10/02 18:46:15;;;;;;;;;;;;;;;;;;5091039;28;19999;-77
2022/10/02 18:48:41;;;;;;;;;;;;;;;;;;5091223;28;19915;-77
2022/10/02 18:51:07;;;;;;;;;;;;;;;;;;5091227;28;19916;-77
2022/10/02 18:54:54;;;;;;;;;;;;;;;;;;5091256;28;20304;-77